Time;durP1;ratioP1;P1;durP2;ratioP2;P2;SDS_P1;SDS_P2;PMS_P1;PMS_P2;Temp;Humidity;BMP_temperature;BMP_pressure;BME280_temperature;BME280_humidity;BME280_pressure;Samples;Min_cycle;Max_cycle;Signal;HPM_P1;HPM_P2
2023/09/27 11:10:34;;;;;;;;;;;;;;;20.32;89.73;101794.81;5515610;23;19926;-96
2023/09/27 11:13:19;;;;;;;;;;;;;;;20.43;88.29;101788.59;4938095;29;19923;-96
2023/09/27 11:15:47;;;;;;;;;;;;;;;20.43;89.29;101785.97;4922360;29;19915;-96
2023/09/27 11:26:05;;;;;;;;;;;;;;;20.43;91.14;101770.06;4992862;23;19940;-96
2023/09/27 11:28:45;;;;;;;;;;;;;;;20.48;91.25;101768.31;4955775;29;19911;-96
2023/09/27 11:31:36;;;;;;;;;;;;;;;20.59;92.10;101770.91;4952322;29;19918;-96
2023/09/27 11:34:17;;;;;;;;;;;;;;;20.72;91.03;101761.19;4953043;29;19919;-96
2023/09/27 11:37:00;;;;;;;;;;;;;;;20.87;90.17;101757.59;4953359;29;19929;-96
2023/09/27 11:39:47;;;;;;;;;;;;;;;20.93;89.64;101757.56;4949370;29;19914;-96
2023/09/27 11:42:12;;;;;;;;;;;;;;;20.97;89.48;101743.41;4943684;29;19914;-96
2023/09/27 11:44:39;;;;;;;;;;;;;;;21.02;88.94;101738.97;4947578;29;19953;-96
2023/09/27 11:47:05;;;;;;;;;;;;;;;21.09;89.12;101738.06;4943919;29;19953;-96
2023/09/27 11:49:50;;;;;;;;;;;;;;;21.14;89.19;101732.72;4941995;29;19914;-96
2023/09/27 11:52:18;;;;;;;;;;;;;;;21.22;88.03;101722.97;4959649;29;19921;-96
2023/09/27 11:55:06;;;;;;;;;;;;;;;21.36;86.96;101717.53;4944263;28;19919;-96
2023/09/27 11:57:35;;;;;;;;;;;;;;;21.50;86.24;101710.38;4938620;29;20379;-96
2023/09/27 12:00:01;;;;;;;;;;;;;;;21.63;86.71;101703.22;4939608;29;20368;-96
2023/09/27 12:03:04;;;;;;;;;;;;;;;21.77;86.58;101702.22;4941547;29;19914;-96
2023/09/27 12:05:45;;;;;;;;;;;;;;;21.93;85.53;101695.88;4940703;29;19938;-96
2023/09/27 12:08:13;;;;;;;;;;;;;;;22.04;85.19;101683.38;4940984;29;20279;-96
2023/09/27 12:10:41;;;;;;;;;;;;;;;22.19;85.07;101689.41;4939316;29;19923;-96
2023/09/27 12:13:12;;;;;;;;;;;;;;;22.26;82.20;101685.81;4936995;29;19918;-96
2023/09/27 12:15:49;;;;;;;;;;;;;;;22.26;79.64;101672.53;4938068;29;19925;-96
2023/09/27 12:18:17;;;;;;;;;;;;;;;22.31;82.56;101677.78;4936842;29;19923;-96
2023/09/27 12:20:49;;;;;;;;;;;;;;;22.39;82.45;101670.59;4937901;29;19961;-96
2023/09/27 12:23:17;;;;;;;;;;;;;;;22.55;77.04;101665.97;4937964;29;20371;-96
2023/09/27 12:25:45;;;;;;;;;;;;;;;22.75;81.49;101669.25;4937776;29;19925;-96
2023/09/27 12:28:11;;;;;;;;;;;;;;;22.82;80.23;101669.16;4938501;29;20031;-96
2023/09/27 12:30:43;;;;;;;;;;;;;;;22.91;79.86;101663.72;4938130;29;19965;-96
2023/09/27 12:33:09;;;;;;;;;;;;;;;23.01;80.16;101670.63;4938040;29;19918;-96
2023/09/27 12:35:34;;;;;;;;;;;;;;;23.14;78.84;101668.72;4938727;29;19952;-96
2023/09/27 12:38:04;;;;;;;;;;;;;;;23.25;79.17;101657.91;4946162;29;19918;-96
2023/09/27 12:43:07;;;;;;;;;;;;;;;23.65;73.70;101659.91;5167677;23;19931;-96
2023/09/27 12:45:37;;;;;;;;;;;;;;;23.65;71.43;101656.34;4940465;29;19927;-96
2023/09/27 12:51:29;;;;;;;;;;;;;;;23.20;74.23;101647.38;4934988;29;20019;-96
2023/09/27 12:54:00;;;;;;;;;;;;;;;23.05;70.18;101642.25;4921550;29;19919;-96
2023/09/27 12:56:30;;;;;;;;;;;;;;;23.07;71.85;101651.06;4921622;29;20261;-96
2023/09/27 13:01:42;;;;;;;;;;;;;;;23.25;71.58;101639.31;5496152;23;19933;-96
2023/09/27 13:04:09;;;;;;;;;;;;;;;23.60;74.78;101635.16;4938308;29;19919;-96
2023/09/27 13:06:40;;;;;;;;;;;;;;;23.98;72.91;101636.22;4938992;29;19950;-96
2023/09/27 13:09:08;;;;;;;;;;;;;;;24.15;72.80;101630.56;4938678;29;19994;-96
2023/09/27 13:11:41;;;;;;;;;;;;;;;24.29;68.00;101627.63;4936118;29;19914;-96
2023/09/27 13:14:26;;;;;;;;;;;;;;;24.17;68.62;101630.53;4938511;29;20368;-96
2023/09/27 13:16:51;;;;;;;;;;;;;;;24.02;65.53;101623.75;4929940;29;19922;-96
2023/09/27 13:19:20;;;;;;;;;;;;;;;23.92;63.94;101617.72;4945094;29;19914;-96
2023/09/27 13:21:48;;;;;;;;;;;;;;;23.92;67.34;101615.06;4938500;29;19921;-96
2023/09/27 14:06:14;;;;;;;;;;;;;;;23.55;69.92;101576.72;727048;23;20360;-96
2023/09/27 14:08:40;;;;;;;;;;;;;;;23.60;70.63;101572.16;4903523;29;19935;-96
2023/09/27 14:11:14;;;;;;;;;;;;;;;23.61;70.11;101565.94;4923106;29;19949;-96
2023/09/27 14:13:39;;;;;;;;;;;;;;;23.63;69.34;101568.56;4923471;29;19929;-96
2023/09/27 14:16:07;;;;;;;;;;;;;;;23.59;70.27;101575.75;4912564;29;20002;-96
2023/09/27 14:18:32;;;;;;;;;;;;;;;23.57;70.99;101571.34;4902585;29;20416;-96
2023/09/27 14:21:00;;;;;;;;;;;;;;;23.51;72.35;101571.47;4886798;29;19915;-96
2023/09/27 14:23:26;;;;;;;;;;;;;;;23.44;72.68;101568.91;4888180;29;19927;-96
2023/09/27 14:25:56;;;;;;;;;;;;;;;23.43;73.02;101567.19;4903791;29;19919;-96
2023/09/27 14:28:22;;;;;;;;;;;;;;;23.43;74.08;101556.53;4905497;29;19998;-96
2023/09/27 14:30:52;;;;;;;;;;;;;;;23.43;74.53;101553.88;4906589;29;19958;-96
2023/09/27 14:33:33;;;;;;;;;;;;;;;23.40;74.78;101551.25;4924559;29;20428;-96
2023/09/27 14:36:01;;;;;;;;;;;;;;;23.36;75.55;101552.25;4922583;29;19922;-96
2023/09/27 14:38:33;;;;;;;;;;;;;;;23.40;76.48;101550.38;4922857;29;19970;-96
2023/09/27 14:40:59;;;;;;;;;;;;;;;23.60;76.36;101550.00;4921765;29;19915;-96
2023/09/27 14:43:35;;;;;;;;;;;;;;;23.64;76.00;101550.81;4905372;29;20637;-96
2023/09/27 14:46:19;;;;;;;;;;;;;;;23.66;76.01;101549.88;4920840;29;19915;-96
2023/09/27 14:48:49;;;;;;;;;;;;;;;23.67;76.40;101541.00;4903554;29;19915;-96
2023/09/27 14:51:20;;;;;;;;;;;;;;;23.69;76.78;101535.66;4899708;29;19916;-96
2023/09/27 14:53:48;;;;;;;;;;;;;;;23.65;76.49;101529.53;4900777;29;19919;-96
2023/09/27 14:56:16;;;;;;;;;;;;;;;23.63;77.22;101528.66;4918282;29;19925;-96
2023/09/27 14:58:42;;;;;;;;;;;;;;;23.63;77.29;101533.13;4919799;29;19923;-96
2023/09/27 15:01:17;;;;;;;;;;;;;;;23.57;77.55;101531.47;4918701;29;19911;-96
2023/09/27 15:03:45;;;;;;;;;;;;;;;23.55;78.19;101528.81;4919687;29;19915;-96
2023/09/27 15:06:13;;;;;;;;;;;;;;;23.55;78.77;101525.28;4922196;29;19919;-96
2023/09/27 15:08:44;;;;;;;;;;;;;;;23.57;79.29;101520.81;4938919;29;19929;-96
2023/09/27 15:11:21;;;;;;;;;;;;;;;23.63;79.75;101520.69;4937238;29;19958;-96
2023/09/27 15:13:50;;;;;;;;;;;;;;;23.67;79.24;101522.38;4936951;29;20018;-96
2023/09/27 15:16:21;;;;;;;;;;;;;;;23.63;79.41;101515.38;4938164;29;20366;-96
2023/09/27 15:18:47;;;;;;;;;;;;;;;23.51;79.61;101508.50;4922798;29;20012;-96
2023/09/27 15:21:13;;;;;;;;;;;;;;;23.42;80.25;101514.88;4922677;29;19919;-96
2023/09/27 15:23:45;;;;;;;;;;;;;;;23.39;80.60;101509.63;4921765;29;19915;-96
2023/09/27 15:26:10;;;;;;;;;;;;;;;23.29;80.65;101500.06;4921441;29;20267;-96
2023/09/27 15:28:38;;;;;;;;;;;;;;;23.19;80.56;101503.81;4920838;29;19921;-96
2023/09/27 15:31:05;;;;;;;;;;;;;;;23.09;80.72;101498.63;4920814;29;19915;-96
2023/09/27 15:33:33;;;;;;;;;;;;;;;23.07;81.50;101499.53;4936260;29;19919;-96
2023/09/27 15:36:05;;;;;;;;;;;;;;;23.03;81.24;101501.41;4937665;29;19915;-96
2023/09/27 15:38:30;;;;;;;;;;;;;;;22.99;81.40;101499.69;4937499;29;19915;-96
2023/09/27 15:40:55;;;;;;;;;;;;;;;22.95;81.63;101505.09;4933022;29;19921;-96
2023/09/27 15:43:21;;;;;;;;;;;;;;;22.89;81.45;101496.31;4939052;29;19922;-96
2023/09/27 15:45:59;;;;;;;;;;;;;;;22.81;81.46;101503.56;4938781;29;19969;-96
2023/09/27 15:48:29;;;;;;;;;;;;;;;22.70;81.77;101494.88;4937571;29;19915;-96
2023/09/27 15:50:59;;;;;;;;;;;;;;;22.63;81.83;101495.88;4937899;29;19919;-96
2023/09/27 15:53:28;;;;;;;;;;;;;;;22.53;82.16;101493.34;4937751;29;20344;-96
2023/09/27 15:55:53;;;;;;;;;;;;;;;22.45;82.22;101484.66;4937324;29;19943;-96
2023/09/27 15:58:22;;;;;;;;;;;;;;;22.41;82.80;101482.94;4936591;29;20364;-96
2023/09/27 16:00:47;;;;;;;;;;;;;;;22.38;82.70;101477.69;4936756;29;19915;-96
2023/09/27 16:03:13;;;;;;;;;;;;;;;22.33;82.43;101475.09;4936733;29;19993;-96
2023/09/27 16:05:38;;;;;;;;;;;;;;;22.31;82.94;101473.34;4936972;29;20383;-96
2023/09/27 16:08:10;;;;;;;;;;;;;;;22.28;83.14;101473.38;4938226;29;19923;-96
2023/09/27 16:10:44;;;;;;;;;;;;;;;22.24;82.85;101467.22;4937371;29;19921;-96
2023/09/27 16:13:16;;;;;;;;;;;;;;;22.18;83.16;101469.97;4921332;29;19918;-96
2023/09/27 16:15:46;;;;;;;;;;;;;;;22.16;84.03;101466.47;4921526;29;19915;-96
2023/09/27 16:18:21;;;;;;;;;;;;;;;22.17;83.61;101465.56;4921406;29;19917;-96
2023/09/27 16:20:49;;;;;;;;;;;;;;;22.13;83.98;101462.09;4921962;29;19915;-96
2023/09/27 16:23:17;;;;;;;;;;;;;;;22.09;84.07;101470.09;4918258;29;19919;-96
2023/09/27 16:25:55;;;;;;;;;;;;;;;22.06;84.07;101463.94;4919206;29;19922;-96
2023/09/27 16:28:30;;;;;;;;;;;;;;;22.01;84.14;101457.81;4918999;29;20373;-96
2023/09/27 16:31:01;;;;;;;;;;;;;;;21.95;84.78;101452.59;4937039;29;20372;-96
2023/09/27 16:33:26;;;;;;;;;;;;;;;21.93;85.01;101462.38;4923132;29;20384;-96
2023/09/27 16:35:54;;;;;;;;;;;;;;;21.93;85.00;101458.81;4922853;29;19915;-96
2023/09/27 16:38:19;;;;;;;;;;;;;;;21.88;84.53;101453.59;4921545;29;20021;-96
2023/09/27 16:40:45;;;;;;;;;;;;;;;21.84;84.79;101442.16;4921948;29;19965;-96
2023/09/27 16:43:23;;;;;;;;;;;;;;;;;;;;;
2023/09/27 16:45:51;;;;;;;;;;;;;;;21.75;85.36;101434.31;4938503;29;19915;-96
2023/09/27 16:48:25;;;;;;;;;;;;;;;21.67;85.51;101441.50;4922036;29;19938;-96
2023/09/27 16:51:01;;;;;;;;;;;;;;;21.63;85.59;101439.78;4921595;29;19921;-96
2023/09/27 16:53:36;;;;;;;;;;;;;;;21.57;84.98;101445.19;4921130;29;19927;-96
2023/09/27 16:56:07;;;;;;;;;;;;;;;21.47;85.33;101433.75;4933234;29;19922;-96
2023/09/27 16:58:41;;;;;;;;;;;;;;;21.35;85.33;101416.25;4904119;29;20281;-96
2023/09/27 17:01:15;;;;;;;;;;;;;;;21.32;85.73;101421.56;4905399;29;19915;-96
2023/09/27 17:03:50;;;;;;;;;;;;;;;;;;;;;
2023/09/27 17:06:20;;;;;;;;;;;;;;;21.21;85.69;101437.59;4922122;29;19931;-96
2023/09/27 17:08:51;;;;;;;;;;;;;;;21.16;86.08;101439.41;4905843;29;19958;-96
2023/09/27 17:11:28;;;;;;;;;;;;;;;21.09;85.97;101424.50;4905134;29;19915;-96
2023/09/27 17:13:53;;;;;;;;;;;;;;;21.04;86.11;101419.22;4905822;29;20359;-96
2023/09/27 17:16:28;;;;;;;;;;;;;;;20.99;86.18;101411.31;4905368;29;19919;-96
2023/09/27 17:19:03;;;;;;;;;;;;;;;20.95;86.13;101411.38;4904653;29;19919;-96
2023/09/27 17:21:31;;;;;;;;;;;;;;;20.90;86.47;101424.69;4904250;29;19922;-96
2023/09/27 17:24:00;;;;;;;;;;;;;;;20.88;86.16;101420.28;4913056;29;19946;-96
2023/09/27 17:26:31;;;;;;;;;;;;;;;20.81;86.29;101416.81;4922954;29;20091;-96
2023/09/27 17:28:56;;;;;;;;;;;;;;;20.76;86.79;101405.41;4923977;29;19914;-96
2023/09/27 17:31:22;;;;;;;;;;;;;;;20.72;86.67;101401.88;4923779;29;19915;-96
2023/09/27 17:33:57;;;;;;;;;;;;;;;20.65;86.47;101398.41;4923770;29;19922;-96
2023/09/27 17:36:28;;;;;;;;;;;;;;;20.58;86.53;101398.44;4924156;29;19915;-96
2023/09/27 17:38:57;;;;;;;;;;;;;;;20.50;86.93;101406.47;4919988;29;20021;-96
2023/09/27 17:41:28;;;;;;;;;;;;;;;20.45;86.75;101405.63;4935164;29;19954;-96
2023/09/27 17:43:56;;;;;;;;;;;;;;;20.36;87.08;101401.28;4939722;29;19966;-96
2023/09/27 17:46:28;;;;;;;;;;;;;;;20.30;87.13;101394.25;4939514;29;19915;-96
2023/09/27 17:49:04;;;;;;;;;;;;;;;20.26;87.15;101395.19;4939399;29;19915;-96
2023/09/27 17:51:35;;;;;;;;;;;;;;;20.21;87.66;101388.19;4939069;29;19914;-96
2023/09/27 17:54:05;;;;;;;;;;;;;;;20.15;87.76;101389.13;4933971;29;20023;-96
2023/09/27 17:56:33;;;;;;;;;;;;;;;20.12;87.70;101378.56;4938729;29;19989;-96
2023/09/27 17:59:02;;;;;;;;;;;;;;;20.11;88.10;101376.78;4939119;29;20384;-96
2023/09/27 18:01:30;;;;;;;;;;;;;;;20.07;88.27;101373.28;4938786;29;19914;-96
2023/09/27 18:03:56;;;;;;;;;;;;;;;20.08;88.11;101382.09;4939164;29;19914;-96
2023/09/27 18:06:24;;;;;;;;;;;;;;;20.04;87.85;101377.72;4939033;29;19923;-96
2023/09/27 18:08:57;;;;;;;;;;;;;;;20.01;87.97;101377.75;4938108;29;20361;-96
2023/09/27 18:11:40;;;;;;;;;;;;;;;19.95;88.17;101373.38;4922700;29;20369;-96
2023/09/27 18:14:06;;;;;;;;;;;;;;;19.91;88.49;101371.63;4922557;29;19923;-96
2023/09/27 18:16:40;;;;;;;;;;;;;;;19.89;88.24;101371.66;4924358;29;20292;-96
2023/09/27 18:19:17;;;;;;;;;;;;;;;19.88;88.45;101361.94;4919675;29;19920;-96
2023/09/27 18:21:49;;;;;;;;;;;;;;;19.84;88.15;101365.50;4903912;29;19915;-96
2023/09/27 18:24:20;;;;;;;;;;;;;;;19.81;88.25;101365.53;4908151;29;19942;-96
2023/09/27 18:26:47;;;;;;;;;;;;;;;19.79;88.40;101364.66;4940842;29;19954;-96
2023/09/27 18:29:17;;;;;;;;;;;;;;;19.78;88.50;101362.88;4938303;29;19922;-96
2023/09/27 18:31:46;;;;;;;;;;;;;;;19.77;88.54;101367.28;4938665;29;19914;-96
2023/09/27 18:34:25;;;;;;;;;;;;;;;19.75;88.49;101370.81;4939034;29;19930;-96
2023/09/27 18:36:53;;;;;;;;;;;;;;;19.72;88.42;101376.13;4922555;29;19958;-96
2023/09/27 18:39:18;;;;;;;;;;;;;;;19.69;88.48;101382.31;4938137;29;19918;-96
2023/09/27 18:41:43;;;;;;;;;;;;;;;19.69;88.17;101373.50;4938977;29;19984;-96
2023/09/27 18:44:09;;;;;;;;;;;;;;;19.66;88.29;101365.59;4938311;29;19974;-96
2023/09/27 18:46:39;;;;;;;;;;;;;;;19.62;88.28;101370.00;4938540;29;20368;-96
2023/09/27 18:49:05;;;;;;;;;;;;;;;19.58;88.22;101368.25;4939119;29;19915;-96
2023/09/27 18:51:33;;;;;;;;;;;;;;;19.53;88.37;101363.00;4938383;29;19922;-96
2023/09/27 18:54:01;;;;;;;;;;;;;;;19.52;88.36;101365.66;4937575;29;19919;-96
2023/09/27 18:56:34;;;;;;;;;;;;;;;19.48;88.53;101362.16;4921738;29;19958;-96
2023/09/27 18:59:03;;;;;;;;;;;;;;;19.49;88.63;101360.41;4922413;29;20407;-96
2023/09/27 19:01:29;;;;;;;;;;;;;;;19.48;88.85;101366.56;4921853;29;19926;-96
2023/09/27 19:03:57;;;;;;;;;;;;;;;19.43;88.60;101371.88;4898776;29;19915;-96
2023/09/27 19:06:22;;;;;;;;;;;;;;;19.37;88.72;101366.63;4884148;29;20021;-96
2023/09/27 19:08:58;;;;;;;;;;;;;;;;;;;;;
2023/09/27 19:11:26;;;;;;;;;;;;;;;19.31;89.04;101361.38;4899175;29;19916;-96
2023/09/27 19:13:51;;;;;;;;;;;;;;;19.27;88.79;101357.84;4883624;29;19920;-96
2023/09/27 19:16:24;;;;;;;;;;;;;;;19.21;89.26;101349.97;4884336;29;19979;-96
2023/09/27 19:18:52;;;;;;;;;;;;;;;19.21;89.42;101350.81;4883356;29;20288;-96
2023/09/27 19:21:23;;;;;;;;;;;;;;;19.21;89.10;101349.97;4883047;29;19991;-96
2023/09/27 19:23:49;;;;;;;;;;;;;;;19.15;89.10;101355.25;4883348;29;19922;-96
2023/09/27 19:26:17;;;;;;;;;;;;;;;19.08;89.24;101355.28;4883234;29;20013;-96
2023/09/27 19:28:42;;;;;;;;;;;;;;;19.07;89.43;101350.91;4883473;29;19967;-96
2023/09/27 19:31:08;;;;;;;;;;;;;;;19.06;89.24;101349.13;4884569;29;20010;-96
2023/09/27 19:33:34;;;;;;;;;;;;;;;19.03;89.41;101350.88;4881727;29;19924;-96
2023/09/27 19:35:59;;;;;;;;;;;;;;;18.96;89.57;101335.94;4921187;29;20320;-96
2023/09/27 19:38:33;;;;;;;;;;;;;;;18.92;89.86;101319.25;4938246;29;19921;-96
2023/09/27 19:41:01;;;;;;;;;;;;;;;18.89;89.90;101335.09;4937493;29;19914;-96
2023/09/27 19:43:32;;;;;;;;;;;;;;;18.85;89.95;101342.09;4937792;29;19922;-96
2023/09/27 19:45:57;;;;;;;;;;;;;;;18.79;90.03;101342.13;4936982;29;19914;-96
2023/09/27 19:48:40;;;;;;;;;;;;;;;18.75;90.13;101340.38;4937191;29;20377;-96
2023/09/27 19:51:11;;;;;;;;;;;;;;;18.72;90.25;101332.47;4937716;29;19914;-96
2023/09/27 19:53:43;;;;;;;;;;;;;;;18.70;90.25;101326.31;4937967;29;20383;-96
2023/09/27 19:56:17;;;;;;;;;;;;;;;18.69;90.65;101319.28;4937024;29;20372;-96
2023/09/27 19:58:43;;;;;;;;;;;;;;;18.68;90.37;101328.06;4937073;29;19957;-96
2023/09/27 20:01:11;;;;;;;;;;;;;;;18.67;89.99;101334.22;4937476;29;19966;-96
2023/09/27 20:03:39;;;;;;;;;;;;;;;18.65;90.02;101334.22;4930524;29;19962;-96
2023/09/27 20:06:04;;;;;;;;;;;;;;;18.60;90.21;101323.69;4919923;29;19923;-96
2023/09/27 20:08:37;;;;;;;;;;;;;;;18.59;90.07;101302.56;4919369;29;19919;-96
2023/09/27 20:11:02;;;;;;;;;;;;;;;18.57;90.07;101310.50;4918663;29;19915;-96
2023/09/27 20:13:38;;;;;;;;;;;;;;;18.57;90.24;101310.50;4934742;29;20380;-96
2023/09/27 20:16:03;;;;;;;;;;;;;;;18.54;90.06;101310.50;4939314;29;19923;-96
2023/09/27 20:18:29;;;;;;;;;;;;;;;18.53;90.02;101316.66;4939383;29;19946;-96
2023/09/27 20:20:54;;;;;;;;;;;;;;;18.57;90.15;101309.63;4940110;29;19914;-96
2023/09/27 20:23:20;;;;;;;;;;;;;;;18.64;90.39;101305.19;4938754;29;19969;-96
2023/09/27 20:25:46;;;;;;;;;;;;;;;18.63;89.91;101292.91;4938173;29;20391;-96
2023/09/27 20:28:15;;;;;;;;;;;;;;;18.64;90.06;101276.16;4938884;29;19914;-96
2023/09/27 20:30:49;;;;;;;;;;;;;;;18.64;90.09;101273.53;4939652;29;19919;-96
2023/09/27 20:33:15;;;;;;;;;;;;;;;18.63;90.29;101266.50;4942391;29;19927;-96
2023/09/27 20:35:45;;;;;;;;;;;;;;;18.64;90.08;101260.31;4943767;29;19925;-96
2023/09/27 20:38:16;;;;;;;;;;;;;;;18.62;89.93;101247.13;4942439;29;20013;-96
2023/09/27 20:40:50;;;;;;;;;;;;;;;18.66;90.01;101243.59;4943355;29;19915;-96
2023/09/27 20:43:15;;;;;;;;;;;;;;;18.69;90.56;101259.44;4943065;29;19921;-96
2023/09/27 20:45:44;;;;;;;;;;;;;;;18.75;89.99;101266.47;4941628;29;19914;-96
2023/09/27 20:48:09;;;;;;;;;;;;;;;18.83;89.50;101271.69;4925753;29;19919;-96
2023/09/27 20:50:38;;;;;;;;;;;;;;;18.87;89.08;101282.31;4927074;29;19975;-96
2023/09/27 20:53:03;;;;;;;;;;;;;;;18.93;88.79;101281.41;4926596;29;19919;-96
2023/09/27 20:55:31;;;;;;;;;;;;;;;18.98;88.74;101276.09;4926923;29;19929;-96
2023/09/27 20:58:01;;;;;;;;;;;;;;;19.02;88.45;101276.06;4926381;29;19922;-96
2023/09/27 21:00:28;;;;;;;;;;;;;;;19.05;88.25;101264.63;4927095;29;19923;-96
2023/09/27 21:02:56;;;;;;;;;;;;;;;19.07;88.04;101262.84;4928819;29;19921;-96
2023/09/27 21:05:24;;;;;;;;;;;;;;;19.09;88.20;101247.88;4927770;29;19919;-96
2023/09/27 21:07:55;;;;;;;;;;;;;;;19.07;88.21;101242.59;4926597;29;19923;-96
2023/09/27 21:10:23;;;;;;;;;;;;;;;19.09;88.12;101234.66;4929157;29;20258;-96
2023/09/27 21:12:51;;;;;;;;;;;;;;;19.07;88.02;101245.25;4927614;29;20447;-96
2023/09/27 21:15:19;;;;;;;;;;;;;;;19.07;87.62;101244.34;4925031;29;19950;-96
2023/09/27 21:17:44;;;;;;;;;;;;;;;19.06;87.48;101240.84;4926416;29;19915;-96
2023/09/27 21:20:12;;;;;;;;;;;;;;;19.08;87.09;101249.63;4926873;29;20032;-96
2023/09/27 21:22:38;;;;;;;;;;;;;;;19.11;86.66;101246.97;4941326;29;21212;-96
2023/09/27 21:25:06;;;;;;;;;;;;;;;19.16;86.41;101241.69;4926539;29;19919;-96
2023/09/27 21:27:34;;;;;;;;;;;;;;;19.16;86.65;101236.38;4927607;29;19911;-96
2023/09/27 21:30:01;;;;;;;;;;;;;;;19.17;86.19;101235.47;4927266;29;19915;-96
2023/09/27 21:32:27;;;;;;;;;;;;;;;19.15;86.79;101234.63;4942932;29;19915;-96
2023/09/27 21:34:54;;;;;;;;;;;;;;;19.11;86.29;101223.19;4943783;29;19919;-96
2023/09/27 21:37:26;;;;;;;;;;;;;;;19.09;86.63;101213.53;4943459;29;19926;-96
2023/09/27 21:40:00;;;;;;;;;;;;;;;19.07;86.33;101210.00;4944101;29;19915;-96
2023/09/27 21:42:28;;;;;;;;;;;;;;;19.06;86.54;101202.97;4943921;29;19919;-96
2023/09/27 21:45:00;;;;;;;;;;;;;;;19.04;86.55;101197.69;4942130;29;19911;-96
2023/09/27 21:47:28;;;;;;;;;;;;;;;19.07;86.25;101191.53;4942333;29;19967;-96
2023/09/27 21:49:56;;;;;;;;;;;;;;;19.08;85.44;101185.38;4943441;29;19915;-96
2023/09/27 21:52:24;;;;;;;;;;;;;;;19.11;85.58;101170.34;4942243;29;19911;-96
2023/09/27 21:54:52;;;;;;;;;;;;;;;19.11;85.69;101173.00;4938064;29;20381;-96
2023/09/27 21:57:18;;;;;;;;;;;;;;;19.08;85.98;101174.78;4941106;29;19922;-96
2023/09/27 21:59:45;;;;;;;;;;;;;;;19.06;85.90;101171.28;4941904;29;19915;-96
2023/09/27 22:02:16;;;;;;;;;;;;;;;19.04;86.11;101178.34;4940678;29;19914;-96
2023/09/27 22:04:41;;;;;;;;;;;;;;;19.02;86.34;101193.31;4927190;29;19937;-96
2023/09/27 22:07:07;;;;;;;;;;;;;;;19.00;85.90;101192.44;4927337;29;19923;-96
2023/09/27 22:09:36;;;;;;;;;;;;;;;18.99;86.02;101209.16;4926581;29;19915;-96
2023/09/27 22:12:02;;;;;;;;;;;;;;;18.99;85.94;101219.72;4940910;29;19948;-96
2023/09/27 22:14:27;;;;;;;;;;;;;;;18.99;85.92;101236.47;4923331;29;19970;-96
2023/09/27 22:16:59;;;;;;;;;;;;;;;19.02;85.69;101247.00;4924393;29;19926;-96
2023/09/27 22:19:27;;;;;;;;;;;;;;;19.07;85.45;101247.00;4924079;29;19915;-96
2023/09/27 22:21:57;;;;;;;;;;;;;;;19.10;85.12;101246.97;4923721;29;19922;-96
2023/09/27 22:24:24;;;;;;;;;;;;;;;19.15;84.20;101236.38;4923780;29;19915;-96
2023/09/27 22:26:56;;;;;;;;;;;;;;;19.17;84.49;101238.13;4924361;29;19914;-96
2023/09/27 22:29:31;;;;;;;;;;;;;;;19.18;84.06;101241.66;4924953;29;20335;-96
2023/09/27 22:31:59;;;;;;;;;;;;;;;19.17;83.79;101243.41;4921994;29;19922;-96
2023/09/27 22:34:36;;;;;;;;;;;;;;;19.18;84.08;101253.09;4922254;29;19923;-96
2023/09/27 22:37:02;;;;;;;;;;;;;;;19.18;83.76;101252.22;4921910;29;19915;-96
2023/09/27 22:39:31;;;;;;;;;;;;;;;19.16;84.03;101246.97;4922792;29;20006;-96
2023/09/27 22:42:02;;;;;;;;;;;;;;;19.12;84.16;101242.56;4920564;29;19979;-96
2023/09/27 22:44:27;;;;;;;;;;;;;;;19.07;84.40;101241.69;4920778;29;19923;-96
2023/09/27 22:46:59;;;;;;;;;;;;;;;19.04;84.91;101249.66;4919813;29;19923;-96
2023/09/27 22:49:40;;;;;;;;;;;;;;;19.02;84.49;101254.06;4936338;29;19915;-96
2023/09/27 22:52:08;;;;;;;;;;;;;;;18.97;84.82;101237.34;4940631;29;20005;-96
2023/09/27 22:54:34;;;;;;;;;;;;;;;18.96;84.95;101239.13;4939469;29;19918;-96
2023/09/27 22:57:02;;;;;;;;;;;;;;;18.91;85.34;101236.50;4938747;29;20002;-96
2023/09/27 22:59:27;;;;;;;;;;;;;;;18.89;85.60;101243.56;4939122;29;19915;-96
2023/09/27 23:02:08;;;;;;;;;;;;;;;18.83;85.98;101238.28;4938986;29;19919;-96
2023/09/27 23:04:34;;;;;;;;;;;;;;;18.78;86.32;101240.03;4938846;29;20014;-96
2023/09/27 23:07:02;;;;;;;;;;;;;;;18.75;86.32;101255.91;4939580;29;19929;-96
2023/09/27 23:09:33;;;;;;;;;;;;;;;18.72;86.39;101240.94;4938634;29;19926;-96
2023/09/27 23:12:24;;;;;;;;;;;;;;;18.71;86.20;101238.31;4939231;29;20191;-96
2023/09/27 23:17:32;;;;;;;;;;;;;;;18.66;86.54;101262.09;4942759;29;19938;-96
2023/09/27 23:19:58;;;;;;;;;;;;;;;18.63;86.77;101250.69;4923062;29;19944;-96
2023/09/27 23:22:26;;;;;;;;;;;;;;;18.60;87.05;101247.16;4924719;29;19915;-96
2023/09/27 23:25:38;;;;;;;;;;;;;;;18.57;87.00;101247.16;4922466;29;19918;-96
2023/09/27 23:27:39;;;;;;;;;;;;;;;18.55;87.19;101237.47;4920646;29;19946;-96
2023/09/27 23:30:12;;;;;;;;;;;;;;;18.52;87.29;101238.38;4919843;29;19915;-96
2023/09/27 23:32:40;;;;;;;;;;;;;;;18.53;87.11;101244.53;4919873;29;20387;-96
2023/09/27 23:35:09;;;;;;;;;;;;;;;18.52;87.10;101253.34;4921060;29;19919;-96
2023/09/27 23:37:35;;;;;;;;;;;;;;;18.52;87.29;101238.38;4922342;29;19915;-96
2023/09/27 23:40:09;;;;;;;;;;;;;;;18.53;86.97;101244.53;4921429;29;19990;-96
2023/09/27 23:42:52;;;;;;;;;;;;;;;18.53;87.13;101250.69;4938882;29;19926;-96
2023/09/27 23:45:25;;;;;;;;;;;;;;;18.55;86.96;101246.31;4938719;29;19919;-96
2023/09/27 23:47:56;;;;;;;;;;;;;;;18.56;86.75;101248.03;4938786;29;19915;-96
2023/09/27 23:50:30;;;;;;;;;;;;;;;18.56;86.85;101237.47;4938676;29;19914;-96
2023/09/27 23:52:57;;;;;;;;;;;;;;;18.56;86.44;101247.16;4937782;29;19978;-96
2023/09/27 23:55:26;;;;;;;;;;;;;;;18.57;86.86;101254.22;4935420;29;19914;-96
2023/09/27 23:57:58;;;;;;;;;;;;;;;18.56;86.30;101250.66;4933853;29;19966;-96
